sensor_id;sensor_type;location;lat;lon;timestamp;pressure;altitude;pressure_sealevel;temperature;humidity
70488;BME280;57976;48.174;16.370;2023-05-10T00:00:17;99114.98;;;12.38;67.96
70488;BME280;57976;48.174;16.370;2023-05-10T00:02:22;99104.10;;;12.37;68.13
70488;BME280;57976;48.174;16.370;2023-05-10T00:04:27;99102.17;;;12.36;68.15
70488;BME280;57976;48.174;16.370;2023-05-10T00:06:32;99101.44;;;12.36;68.62
70488;BME280;57976;48.174;16.370;2023-05-10T00:08:37;99098.65;;;12.35;68.25
70488;BME280;57976;48.174;16.370;2023-05-10T00:10:42;99098.20;;;12.36;68.69
70488;BME280;57976;48.174;16.370;2023-05-10T00:12:46;99095.32;;;12.35;68.99
70488;BME280;57976;48.174;16.370;2023-05-10T00:14:51;99093.72;;;12.35;68.70
70488;BME280;57976;48.174;16.370;2023-05-10T00:16:56;99091.30;;;12.35;69.17
70488;BME280;57976;48.174;16.370;2023-05-10T00:19:00;99090.60;;;12.35;69.21
70488;BME280;57976;48.174;16.370;2023-05-10T00:21:06;99090.70;;;12.34;69.34
70488;BME280;57976;48.174;16.370;2023-05-10T00:23:10;99088.80;;;12.33;69.86
70488;BME280;57976;48.174;16.370;2023-05-10T00:25:15;99085.15;;;12.31;70.04
70488;BME280;57976;48.174;16.370;2023-05-10T00:27:20;99084.06;;;12.29;70.30
70488;BME280;57976;48.174;16.370;2023-05-10T00:29:25;99078.63;;;12.27;70.42
70488;BME280;57976;48.174;16.370;2023-05-10T00:31:30;99075.34;;;12.26;70.56
70488;BME280;57976;48.174;16.370;2023-05-10T00:33:35;99075.45;;;12.24;70.57
70488;BME280;57976;48.174;16.370;2023-05-10T00:35:39;99076.85;;;12.21;70.77
70488;BME280;57976;48.174;16.370;2023-05-10T00:37:44;99071.61;;;12.19;70.69
70488;BME280;57976;48.174;16.370;2023-05-10T00:39:49;99066.42;;;12.17;71.06
70488;BME280;57976;48.174;16.370;2023-05-10T00:41:53;99065.05;;;12.14;71.23
70488;BME280;57976;48.174;16.370;2023-05-10T00:43:58;99060.53;;;12.12;71.28
70488;BME280;57976;48.174;16.370;2023-05-10T00:46:04;99060.54;;;12.12;71.30
70488;BME280;57976;48.174;16.370;2023-05-10T00:48:09;99055.73;;;12.10;71.52
70488;BME280;57976;48.174;16.370;2023-05-10T00:50:14;99051.24;;;12.08;71.52
70488;BME280;57976;48.174;16.370;2023-05-10T00:52:20;99049.30;;;12.05;71.84
70488;BME280;57976;48.174;16.370;2023-05-10T00:54:25;99052.72;;;12.04;71.90
70488;BME280;57976;48.174;16.370;2023-05-10T00:56:30;99048.46;;;12.01;72.03
70488;BME280;57976;48.174;16.370;2023-05-10T00:58:35;99046.01;;;11.99;72.22
70488;BME280;57976;48.174;16.370;2023-05-10T01:00:42;99042.11;;;11.98;72.24
70488;BME280;57976;48.174;16.370;2023-05-10T01:05:32;99035.05;;;11.96;72.60
70488;BME280;57976;48.174;16.370;2023-05-10T01:07:37;99032.92;;;11.93;72.87
70488;BME280;57976;48.174;16.370;2023-05-10T01:09:42;99032.00;;;11.89;72.94
70488;BME280;57976;48.174;16.370;2023-05-10T01:11:48;99028.16;;;11.86;72.81
70488;BME280;57976;48.174;16.370;2023-05-10T01:13:56;99027.68;;;11.83;73.19
70488;BME280;57976;48.174;16.370;2023-05-10T01:16:02;99022.95;;;11.79;73.65
70488;BME280;57976;48.174;16.370;2023-05-10T01:18:10;99019.77;;;11.75;73.70
70488;BME280;57976;48.174;16.370;2023-05-10T01:20:15;99017.30;;;11.71;73.84
70488;BME280;57976;48.174;16.370;2023-05-10T01:25:26;99016.27;;;11.61;74.40
70488;BME280;57976;48.174;16.370;2023-05-10T01:27:51;99014.05;;;11.55;74.85
70488;BME280;57976;48.174;16.370;2023-05-10T01:30:17;99013.25;;;11.51;74.96
70488;BME280;57976;48.174;16.370;2023-05-10T01:32:32;99015.45;;;11.48;75.17
70488;BME280;57976;48.174;16.370;2023-05-10T01:34:44;99015.80;;;11.44;75.28
70488;BME280;57976;48.174;16.370;2023-05-10T01:36:58;99008.48;;;11.39;75.90
70488;BME280;57976;48.174;16.370;2023-05-10T01:39:14;99008.05;;;11.35;75.65
70488;BME280;57976;48.174;16.370;2023-05-10T01:41:23;99015.00;;;11.32;76.16
70488;BME280;57976;48.174;16.370;2023-05-10T01:43:35;99012.44;;;11.28;76.23
70488;BME280;57976;48.174;16.370;2023-05-10T01:45:50;99012.73;;;11.25;76.17
70488;BME280;57976;48.174;16.370;2023-05-10T01:48:03;99006.19;;;11.23;76.59
70488;BME280;57976;48.174;16.370;2023-05-10T01:50:15;99008.23;;;11.22;76.70
70488;BME280;57976;48.174;16.370;2023-05-10T01:52:25;99005.26;;;11.19;76.62
70488;BME280;57976;48.174;16.370;2023-05-10T01:54:32;99008.41;;;11.17;76.36
70488;BME280;57976;48.174;16.370;2023-05-10T01:56:39;99005.52;;;11.13;76.86
70488;BME280;57976;48.174;16.370;2023-05-10T01:58:46;99002.96;;;11.10;77.20
70488;BME280;57976;48.174;16.370;2023-05-10T02:00:53;98999.27;;;11.07;77.13
70488;BME280;57976;48.174;16.370;2023-05-10T02:02:59;98999.17;;;11.04;77.12
70488;BME280;57976;48.174;16.370;2023-05-10T02:05:07;98994.00;;;11.01;77.05
70488;BME280;57976;48.174;16.370;2023-05-10T02:07:13;98995.02;;;10.98;77.81
70488;BME280;57976;48.174;16.370;2023-05-10T02:09:19;98995.80;;;10.96;77.57
70488;BME280;57976;48.174;16.370;2023-05-10T02:11:26;98990.81;;;10.94;77.31
70488;BME280;57976;48.174;16.370;2023-05-10T02:13:33;98993.89;;;10.92;77.87
70488;BME280;57976;48.174;16.370;2023-05-10T02:15:41;98993.73;;;10.91;78.09
70488;BME280;57976;48.174;16.370;2023-05-10T02:17:49;98995.39;;;10.89;78.00
70488;BME280;57976;48.174;16.370;2023-05-10T02:19:54;98995.27;;;10.86;78.64
70488;BME280;57976;48.174;16.370;2023-05-10T02:22:02;98994.38;;;10.82;78.96
70488;BME280;57976;48.174;16.370;2023-05-10T02:24:10;98989.11;;;10.78;79.24
70488;BME280;57976;48.174;16.370;2023-05-10T02:26:17;98988.58;;;10.75;79.26
70488;BME280;57976;48.174;16.370;2023-05-10T02:28:23;98989.48;;;10.74;79.37
70488;BME280;57976;48.174;16.370;2023-05-10T02:30:30;98986.86;;;10.72;79.49
70488;BME280;57976;48.174;16.370;2023-05-10T10:36:02;99011.95;;;20.41;45.19
70488;BME280;57976;48.174;16.370;2023-05-10T10:38:10;99016.17;;;20.36;45.21
70488;BME280;57976;48.174;16.370;2023-05-10T10:40:32;99018.24;;;20.40;45.14
70488;BME280;57976;48.174;16.370;2023-05-10T10:42:48;99014.17;;;20.43;45.01
70488;BME280;57976;48.174;16.370;2023-05-10T10:45:13;99015.89;;;20.48;45.04
70488;BME280;57976;48.174;16.370;2023-05-10T10:47:27;99014.23;;;20.51;44.93
70488;BME280;57976;48.174;16.370;2023-05-10T10:49:37;99014.77;;;20.49;44.92
70488;BME280;57976;48.174;16.370;2023-05-10T10:52:14;99003.98;;;20.48;44.92
70488;BME280;57976;48.174;16.370;2023-05-10T10:54:28;99012.39;;;20.51;45.06
70488;BME280;57976;48.174;16.370;2023-05-10T10:56:33;99006.14;;;20.54;44.72
70488;BME280;57976;48.174;16.370;2023-05-10T10:58:49;99009.27;;;20.60;44.60
70488;BME280;57976;48.174;16.370;2023-05-10T11:01:10;99005.77;;;20.63;44.34
70488;BME280;57976;48.174;16.370;2023-05-10T11:03:16;99006.45;;;20.65;44.38
70488;BME280;57976;48.174;16.370;2023-05-10T11:05:38;99005.69;;;20.69;44.72
70488;BME280;57976;48.174;16.370;2023-05-10T11:07:54;99011.36;;;20.76;44.32
70488;BME280;57976;48.174;16.370;2023-05-10T11:10:05;99004.15;;;20.80;44.14
70488;BME280;57976;48.174;16.370;2023-05-10T11:12:11;99001.27;;;20.81;44.02
70488;BME280;57976;48.174;16.370;2023-05-10T11:14:21;99002.21;;;20.78;43.69
70488;BME280;57976;48.174;16.370;2023-05-10T11:16:26;99001.27;;;20.78;43.88
70488;BME280;57976;48.174;16.370;2023-05-10T11:18:31;98997.87;;;20.80;43.94
70488;BME280;57976;48.174;16.370;2023-05-10T11:20:41;99004.93;;;20.86;44.31
70488;BME280;57976;48.174;16.370;2023-05-10T11:22:52;98994.35;;;20.95;44.07
70488;BME280;57976;48.174;16.370;2023-05-10T11:25:01;98991.75;;;20.98;44.24
70488;BME280;57976;48.174;16.370;2023-05-10T11:27:06;98994.50;;;21.01;43.93
70488;BME280;57976;48.174;16.370;2023-05-10T11:29:13;98994.77;;;21.00;43.83
70488;BME280;57976;48.174;16.370;2023-05-10T11:31:19;98993.91;;;21.06;43.91
70488;BME280;57976;48.174;16.370;2023-05-10T11:33:24;98993.95;;;21.10;43.67
70488;BME280;57976;48.174;16.370;2023-05-10T11:35:30;98991.83;;;21.13;43.65
70488;BME280;57976;48.174;16.370;2023-05-10T11:37:35;98992.80;;;21.14;43.72
70488;BME280;57976;48.174;16.370;2023-05-10T11:39:46;98994.83;;;21.19;43.59
70488;BME280;57976;48.174;16.370;2023-05-10T11:41:51;98990.70;;;21.22;43.10
70488;BME280;57976;48.174;16.370;2023-05-10T11:43:57;98991.67;;;21.24;43.24
70488;BME280;57976;48.174;16.370;2023-05-10T11:46:03;98994.19;;;21.29;43.34
70488;BME280;57976;48.174;16.370;2023-05-10T11:48:08;98990.29;;;21.32;43.08
70488;BME280;57976;48.174;16.370;2023-05-10T11:50:13;98998.64;;;21.27;42.73
70488;BME280;57976;48.174;16.370;2023-05-10T11:52:19;98990.27;;;21.22;42.50
70488;BME280;57976;48.174;16.370;2023-05-10T11:54:24;98991.73;;;21.21;42.91
70488;BME280;57976;48.174;16.370;2023-05-10T11:56:29;98996.05;;;21.24;42.74
70488;BME280;57976;48.174;16.370;2023-05-10T11:58:37;98991.60;;;21.27;42.43
70488;BME280;57976;48.174;16.370;2023-05-10T12:00:43;98988.54;;;21.33;42.19
70488;BME280;57976;48.174;16.370;2023-05-10T12:02:47;98992.14;;;21.40;42.50
70488;BME280;57976;48.174;16.370;2023-05-10T12:04:53;98985.92;;;21.47;42.38
70488;BME280;57976;48.174;16.370;2023-05-10T12:06:59;98987.58;;;21.50;41.49
70488;BME280;57976;48.174;16.370;2023-05-10T12:09:07;98991.67;;;21.45;41.76
70488;BME280;57976;48.174;16.370;2023-05-10T12:11:12;98992.10;;;21.47;41.69
70488;BME280;57976;48.174;16.370;2023-05-10T12:13:18;98990.08;;;21.49;41.82
70488;BME280;57976;48.174;16.370;2023-05-10T12:15:25;98991.15;;;21.51;41.69
70488;BME280;57976;48.174;16.370;2023-05-10T12:17:30;98993.15;;;21.54;41.63
70488;BME280;57976;48.174;16.370;2023-05-10T12:19:40;98992.69;;;21.58;41.39
70488;BME280;57976;48.174;16.370;2023-05-10T12:21:45;98984.04;;;21.63;41.18
70488;BME280;57976;48.174;16.370;2023-05-10T12:23:51;98985.77;;;21.69;41.41
70488;BME280;57976;48.174;16.370;2023-05-10T12:26:03;98989.22;;;21.74;40.95
70488;BME280;57976;48.174;16.370;2023-05-10T12:28:09;98990.76;;;21.81;40.63
70488;BME280;57976;48.174;16.370;2023-05-10T12:30:20;98988.80;;;21.85;40.52
70488;BME280;57976;48.174;16.370;2023-05-10T12:32:38;98985.99;;;21.90;40.58
70488;BME280;57976;48.174;16.370;2023-05-10T12:34:43;98980.94;;;21.91;40.28
70488;BME280;57976;48.174;16.370;2023-05-10T12:36:53;98984.65;;;21.95;40.57
70488;BME280;57976;48.174;16.370;2023-05-10T12:39:04;98984.16;;;22.02;40.54
70488;BME280;57976;48.174;16.370;2023-05-10T12:41:10;98980.59;;;22.09;40.11
70488;BME280;57976;48.174;16.370;2023-05-10T12:43:15;98978.33;;;22.18;39.89
70488;BME280;57976;48.174;16.370;2023-05-10T12:45:20;98972.20;;;22.24;39.47
70488;BME280;57976;48.174;16.370;2023-05-10T12:47:26;98970.23;;;22.16;38.75
70488;BME280;57976;48.174;16.370;2023-05-10T12:49:31;98974.20;;;22.14;38.97
70488;BME280;57976;48.174;16.370;2023-05-10T12:51:35;98981.27;;;22.19;39.31
70488;BME280;57976;48.174;16.370;2023-05-10T12:53:41;98972.52;;;22.31;39.33
70488;BME280;57976;48.174;16.370;2023-05-10T12:55:49;98969.67;;;22.38;39.33
70488;BME280;57976;48.174;16.370;2023-05-10T12:57:54;98964.60;;;22.40;39.65
70488;BME280;57976;48.174;16.370;2023-05-10T12:59:59;98972.16;;;22.45;40.03
70488;BME280;57976;48.174;16.370;2023-05-10T13:02:04;98971.21;;;22.54;40.12
70488;BME280;57976;48.174;16.370;2023-05-10T13:04:09;98968.34;;;22.54;39.37
70488;BME280;57976;48.174;16.370;2023-05-10T13:06:14;98961.33;;;22.54;39.15
70488;BME280;57976;48.174;16.370;2023-05-10T13:08:19;98962.29;;;22.45;39.16
70488;BME280;57976;48.174;16.370;2023-05-10T13:10:24;98964.58;;;22.39;38.97
70488;BME280;57976;48.174;16.370;2023-05-10T13:12:29;98965.59;;;22.34;39.37
70488;BME280;57976;48.174;16.370;2023-05-10T13:14:33;98968.34;;;22.32;39.65
70488;BME280;57976;48.174;16.370;2023-05-10T13:16:38;98960.33;;;22.29;39.89
70488;BME280;57976;48.174;16.370;2023-05-10T13:18:45;98960.62;;;22.26;40.16
70488;BME280;57976;48.174;16.370;2023-05-10T13:20:49;98960.28;;;22.27;40.14
70488;BME280;57976;48.174;16.370;2023-05-10T13:22:54;98964.02;;;22.22;40.10
70488;BME280;57976;48.174;16.370;2023-05-10T13:25:00;98958.46;;;22.18;39.93
70488;BME280;57976;48.174;16.370;2023-05-10T13:27:04;98960.45;;;22.20;40.22
70488;BME280;57976;48.174;16.370;2023-05-10T13:29:09;98957.67;;;22.27;40.31
70488;BME280;57976;48.174;16.370;2023-05-10T13:31:14;98952.10;;;22.32;40.29
70488;BME280;57976;48.174;16.370;2023-05-10T13:33:19;98954.49;;;22.31;39.92
70488;BME280;57976;48.174;16.370;2023-05-10T13:35:25;98953.55;;;22.22;39.54
70488;BME280;57976;48.174;16.370;2023-05-10T13:37:30;98954.27;;;22.22;40.03
70488;BME280;57976;48.174;16.370;2023-05-10T13:39:34;98949.92;;;22.26;39.74
70488;BME280;57976;48.174;16.370;2023-05-10T13:41:40;98952.63;;;22.39;40.07
70488;BME280;57976;48.174;16.370;2023-05-10T13:43:45;98945.27;;;22.53;39.83
70488;BME280;57976;48.174;16.370;2023-05-10T13:45:50;98950.94;;;22.63;39.74
70488;BME280;57976;48.174;16.370;2023-05-10T13:47:54;98947.13;;;22.68;39.25
70488;BME280;57976;48.174;16.370;2023-05-10T13:49:59;98949.87;;;22.76;39.28
70488;BME280;57976;48.174;16.370;2023-05-10T13:52:05;98947.21;;;22.86;39.38
70488;BME280;57976;48.174;16.370;2023-05-10T13:54:09;98950.65;;;22.89;39.40
70488;BME280;57976;48.174;16.370;2023-05-10T13:56:17;98949.27;;;22.95;39.03
70488;BME280;57976;48.174;16.370;2023-05-10T13:58:22;98946.23;;;22.94;38.37
70488;BME280;57976;48.174;16.370;2023-05-10T14:00:27;98942.08;;;22.89;38.63
70488;BME280;57976;48.174;16.370;2023-05-10T14:02:32;98943.14;;;22.86;38.90
70488;BME280;57976;48.174;16.370;2023-05-10T14:04:37;98942.23;;;22.93;38.80
70488;BME280;57976;48.174;16.370;2023-05-10T14:06:42;98940.16;;;23.02;38.56
70488;BME280;57976;48.174;16.370;2023-05-10T14:08:47;98938.36;;;23.03;38.18
70488;BME280;57976;48.174;16.370;2023-05-10T14:10:52;98936.52;;;23.03;37.87
70488;BME280;57976;48.174;16.370;2023-05-10T14:12:57;98936.49;;;23.00;38.37
70488;BME280;57976;48.174;16.370;2023-05-10T14:15:02;98939.95;;;23.03;38.25
70488;BME280;57976;48.174;16.370;2023-05-10T14:17:07;98931.35;;;23.03;38.18
70488;BME280;57976;48.174;16.370;2023-05-10T14:19:15;98938.55;;;23.01;37.63
70488;BME280;57976;48.174;16.370;2023-05-10T14:21:20;98941.17;;;22.95;37.66
70488;BME280;57976;48.174;16.370;2023-05-10T14:23:25;98937.60;;;22.94;37.62
70488;BME280;57976;48.174;16.370;2023-05-10T14:25:33;98938.08;;;22.95;37.47
70488;BME280;57976;48.174;16.370;2023-05-10T14:27:38;98938.78;;;22.95;37.20
70488;BME280;57976;48.174;16.370;2023-05-10T14:29:43;98933.30;;;22.95;37.19
70488;BME280;57976;48.174;16.370;2023-05-10T14:31:48;98930.34;;;22.92;37.30
70488;BME280;57976;48.174;16.370;2023-05-10T14:33:53;98935.96;;;22.86;37.37
70488;BME280;57976;48.174;16.370;2023-05-10T14:35:58;98935.11;;;22.80;37.51
70488;BME280;57976;48.174;16.370;2023-05-10T14:38:03;98934.01;;;22.77;37.51
70488;BME280;57976;48.174;16.370;2023-05-10T14:40:10;98932.79;;;22.79;37.65
70488;BME280;57976;48.174;16.370;2023-05-10T14:42:15;98932.74;;;22.83;37.68
70488;BME280;57976;48.174;16.370;2023-05-10T14:44:20;98934.55;;;22.87;37.56
70488;BME280;57976;48.174;16.370;2023-05-10T14:46:25;98935.68;;;22.87;37.09
70488;BME280;57976;48.174;16.370;2023-05-10T14:48:30;98931.55;;;22.76;36.47
70488;BME280;57976;48.174;16.370;2023-05-10T14:50:35;98935.04;;;22.72;36.35
70488;BME280;57976;48.174;16.370;2023-05-10T14:52:41;98930.39;;;22.75;36.62
70488;BME280;57976;48.174;16.370;2023-05-10T14:54:46;98930.95;;;22.78;36.49
70488;BME280;57976;48.174;16.370;2023-05-10T14:56:51;98929.94;;;22.77;36.18
70488;BME280;57976;48.174;16.370;2023-05-10T14:58:56;98929.51;;;22.76;36.42
70488;BME280;57976;48.174;16.370;2023-05-10T15:01:01;98932.61;;;22.71;36.38
70488;BME280;57976;48.174;16.370;2023-05-10T15:03:07;98934.06;;;22.67;36.51
70488;BME280;57976;48.174;16.370;2023-05-10T15:05:12;98941.52;;;22.59;36.50
70488;BME280;57976;48.174;16.370;2023-05-10T15:07:18;98941.05;;;22.51;36.45
70488;BME280;57976;48.174;16.370;2023-05-10T15:09:23;98941.05;;;22.45;36.46
70488;BME280;57976;48.174;16.370;2023-05-10T15:11:28;98940.71;;;22.42;36.77
70488;BME280;57976;48.174;16.370;2023-05-10T15:13:32;98941.79;;;22.41;36.99
70488;BME280;57976;48.174;16.370;2023-05-10T15:15:37;98947.58;;;22.44;37.31
70488;BME280;57976;48.174;16.370;2023-05-10T15:17:42;98941.91;;;22.45;37.25
70488;BME280;57976;48.174;16.370;2023-05-10T15:19:47;98941.27;;;22.46;37.47
70488;BME280;57976;48.174;16.370;2023-05-10T15:21:52;98944.13;;;22.47;37.56
70488;BME280;57976;48.174;16.370;2023-05-10T15:23:57;98947.90;;;22.45;37.21
70488;BME280;57976;48.174;16.370;2023-05-10T15:26:02;98942.11;;;22.44;37.44
70488;BME280;57976;48.174;16.370;2023-05-10T15:28:07;98946.11;;;22.40;37.08
70488;BME280;57976;48.174;16.370;2023-05-10T15:30:13;98944.79;;;22.35;36.90
70488;BME280;57976;48.174;16.370;2023-05-10T15:32:18;98944.63;;;22.30;36.97
70488;BME280;57976;48.174;16.370;2023-05-10T15:34:26;98944.59;;;22.24;36.89
70488;BME280;57976;48.174;16.370;2023-05-10T15:36:34;98942.46;;;22.19;37.20
70488;BME280;57976;48.174;16.370;2023-05-10T15:38:39;98945.75;;;22.15;37.33
70488;BME280;57976;48.174;16.370;2023-05-10T15:40:44;98946.88;;;22.10;37.55
70488;BME280;57976;48.174;16.370;2023-05-10T15:42:49;98950.42;;;22.08;37.93
70488;BME280;57976;48.174;16.370;2023-05-10T15:44:54;98945.23;;;22.05;38.28
70488;BME280;57976;48.174;16.370;2023-05-10T15:46:59;98946.77;;;22.03;38.55
70488;BME280;57976;48.174;16.370;2023-05-10T15:49:04;98946.57;;;22.01;38.80
70488;BME280;57976;48.174;16.370;2023-05-10T15:51:09;98951.11;;;21.98;38.98
70488;BME280;57976;48.174;16.370;2023-05-10T15:53:14;98951.52;;;21.85;39.04
70488;BME280;57976;48.174;16.370;2023-05-10T15:55:19;98946.75;;;21.74;39.42
70488;BME280;57976;48.174;16.370;2023-05-10T15:57:24;98949.89;;;21.68;39.44
70488;BME280;57976;48.174;16.370;2023-05-10T15:59:29;98948.36;;;21.63;39.67
70488;BME280;57976;48.174;16.370;2023-05-10T16:01:35;98946.31;;;21.59;39.51
70488;BME280;57976;48.174;16.370;2023-05-10T16:03:40;98951.06;;;21.56;39.29
70488;BME280;57976;48.174;16.370;2023-05-10T16:05:45;98950.77;;;21.49;39.48
70488;BME280;57976;48.174;16.370;2023-05-10T16:07:50;98955.55;;;21.47;39.48
70488;BME280;57976;48.174;16.370;2023-05-10T16:09:55;98951.67;;;21.44;39.21
70488;BME280;57976;48.174;16.370;2023-05-10T16:12:00;98953.73;;;21.43;39.43
70488;BME280;57976;48.174;16.370;2023-05-10T16:14:05;98952.89;;;21.41;39.32
70488;BME280;57976;48.174;16.370;2023-05-10T16:16:11;98948.67;;;21.38;39.58
70488;BME280;57976;48.174;16.370;2023-05-10T16:18:16;98953.79;;;21.33;39.68
70488;BME280;57976;48.174;16.370;2023-05-10T16:20:22;98955.59;;;21.31;39.94
70488;BME280;57976;48.174;16.370;2023-05-10T16:22:27;98953.00;;;21.30;40.17
70488;BME280;57976;48.174;16.370;2023-05-10T16:24:32;98953.45;;;21.28;40.38
70488;BME280;57976;48.174;16.370;2023-05-10T16:26:37;98957.31;;;21.22;40.63
70488;BME280;57976;48.174;16.370;2023-05-10T16:28:43;98958.27;;;21.17;40.75
70488;BME280;57976;48.174;16.370;2023-05-10T16:30:48;98954.58;;;21.17;40.87
70488;BME280;57976;48.174;16.370;2023-05-10T16:32:53;98954.48;;;21.14;41.06
70488;BME280;57976;48.174;16.370;2023-05-10T16:34:59;98958.14;;;21.10;41.13
70488;BME280;57976;48.174;16.370;2023-05-10T16:37:04;98957.23;;;21.04;41.11
70488;BME280;57976;48.174;16.370;2023-05-10T16:39:09;98964.65;;;20.99;41.17
70488;BME280;57976;48.174;16.370;2023-05-10T16:41:14;98966.77;;;20.95;41.39
70488;BME280;57976;48.174;16.370;2023-05-10T16:43:19;98967.43;;;20.93;41.37
70488;BME280;57976;48.174;16.370;2023-05-10T16:45:24;98966.36;;;20.87;41.11
70488;BME280;57976;48.174;16.370;2023-05-10T16:47:29;98968.68;;;20.74;40.90
70488;BME280;57976;48.174;16.370;2023-05-10T16:49:35;98977.27;;;20.65;41.15
70488;BME280;57976;48.174;16.370;2023-05-10T16:51:41;98977.02;;;20.58;41.33
70488;BME280;57976;48.174;16.370;2023-05-10T16:53:46;98974.98;;;20.51;41.18
70488;BME280;57976;48.174;16.370;2023-05-10T16:55:51;98983.60;;;20.43;41.23
70488;BME280;57976;48.174;16.370;2023-05-10T16:57:56;98986.46;;;20.34;41.43
70488;BME280;57976;48.174;16.370;2023-05-10T17:00:01;98985.83;;;20.24;41.72
70488;BME280;57976;48.174;16.370;2023-05-10T17:02:06;98990.19;;;20.17;41.88
70488;BME280;57976;48.174;16.370;2023-05-10T17:04:11;98989.48;;;20.12;42.22
70488;BME280;57976;48.174;16.370;2023-05-10T17:06:16;98993.59;;;20.04;42.37
70488;BME280;57976;48.174;16.370;2023-05-10T17:08:22;98995.60;;;19.98;42.55
70488;BME280;57976;48.174;16.370;2023-05-10T17:10:27;98992.98;;;19.93;42.77
70488;BME280;57976;48.174;16.370;2023-05-10T17:12:32;98993.20;;;19.88;43.02
70488;BME280;57976;48.174;16.370;2023-05-10T17:14:37;98995.24;;;19.83;43.11
70488;BME280;57976;48.174;16.370;2023-05-10T17:16:42;98995.14;;;19.82;43.23
70488;BME280;57976;48.174;16.370;2023-05-10T17:18:47;98996.59;;;19.80;43.32
70488;BME280;57976;48.174;16.370;2023-05-10T17:20:52;99001.09;;;19.75;43.54
70488;BME280;57976;48.174;16.370;2023-05-10T17:22:57;99001.11;;;19.68;43.62
70488;BME280;57976;48.174;16.370;2023-05-10T17:25:02;99002.63;;;19.62;43.78
70488;BME280;57976;48.174;16.370;2023-05-10T17:27:08;99001.31;;;19.56;43.92
70488;BME280;57976;48.174;16.370;2023-05-10T17:29:13;99001.14;;;19.52;44.08
70488;BME280;57976;48.174;16.370;2023-05-10T17:31:18;99005.73;;;19.51;44.39
70488;BME280;57976;48.174;16.370;2023-05-10T17:33:23;99007.45;;;19.48;44.42
70488;BME280;57976;48.174;16.370;2023-05-10T17:35:28;99011.02;;;19.45;44.48
70488;BME280;57976;48.174;16.370;2023-05-10T17:37:33;99009.70;;;19.43;44.56
70488;BME280;57976;48.174;16.370;2023-05-10T17:39:38;99011.62;;;19.37;44.73
70488;BME280;57976;48.174;16.370;2023-05-10T17:41:43;99014.56;;;19.31;44.88
70488;BME280;57976;48.174;16.370;2023-05-10T17:43:48;99013.20;;;19.29;45.03
70488;BME280;57976;48.174;16.370;2023-05-10T17:45:53;99015.89;;;19.28;45.15
70488;BME280;57976;48.174;16.370;2023-05-10T17:47:58;99015.34;;;19.25;45.38
70488;BME280;57976;48.174;16.370;2023-05-10T17:50:03;99015.44;;;19.23;45.28
70488;BME280;57976;48.174;16.370;2023-05-10T17:52:08;99020.98;;;19.19;45.39
70488;BME280;57976;48.174;16.370;2023-05-10T17:54:13;99019.77;;;19.15;45.53
70488;BME280;57976;48.174;16.370;2023-05-10T17:56:18;99021.64;;;19.10;45.72
70488;BME280;57976;48.174;16.370;2023-05-10T17:58:23;99021.63;;;19.05;45.80
70488;BME280;57976;48.174;16.370;2023-05-10T18:00:28;99023.55;;;19.02;45.98
70488;BME280;57976;48.174;16.370;2023-05-10T18:02:33;99025.05;;;18.99;46.06
70488;BME280;57976;48.174;16.370;2023-05-10T18:04:39;99025.79;;;18.96;46.23
70488;BME280;57976;48.174;16.370;2023-05-10T18:06:44;99028.41;;;18.93;46.23
70488;BME280;57976;48.174;16.370;2023-05-10T18:08:49;99030.13;;;18.89;46.30
70488;BME280;57976;48.174;16.370;2023-05-10T18:10:54;99028.98;;;18.86;46.48
70488;BME280;57976;48.174;16.370;2023-05-10T18:12:59;99032.52;;;18.82;46.52
70488;BME280;57976;48.174;16.370;2023-05-10T18:15:05;99029.91;;;18.78;46.66
70488;BME280;57976;48.174;16.370;2023-05-10T18:17:10;99036.00;;;18.76;46.71
70488;BME280;57976;48.174;16.370;2023-05-10T18:19:15;99039.43;;;18.73;46.79
70488;BME280;57976;48.174;16.370;2023-05-10T18:21:20;99042.48;;;18.70;46.90
70488;BME280;57976;48.174;16.370;2023-05-10T18:23:25;99044.78;;;18.67;47.03
70488;BME280;57976;48.174;16.370;2023-05-10T18:25:30;99043.62;;;18.63;47.06
70488;BME280;57976;48.174;16.370;2023-05-10T18:27:35;99046.90;;;18.60;47.17
70488;BME280;57976;48.174;16.370;2023-05-10T18:29:40;99049.84;;;18.57;47.16
70488;BME280;57976;48.174;16.370;2023-05-10T18:31:45;99051.42;;;18.54;47.15
70488;BME280;57976;48.174;16.370;2023-05-10T18:33:51;99047.64;;;18.51;47.22
70488;BME280;57976;48.174;16.370;2023-05-10T18:35:56;99049.91;;;18.46;47.44
70488;BME280;57976;48.174;16.370;2023-05-10T18:38:01;99050.34;;;18.42;47.45
70488;BME280;57976;48.174;16.370;2023-05-10T18:40:08;99054.81;;;18.35;47.52
70488;BME280;57976;48.174;16.370;2023-05-10T18:42:13;99058.90;;;18.31;47.68
70488;BME280;57976;48.174;16.370;2023-05-10T18:44:18;99061.22;;;18.26;47.75
70488;BME280;57976;48.174;16.370;2023-05-10T18:46:23;99063.00;;;18.21;47.88
70488;BME280;57976;48.174;16.370;2023-05-10T18:48:29;99064.92;;;18.18;48.01
70488;BME280;57976;48.174;16.370;2023-05-10T18:50:34;99065.93;;;18.15;48.07
70488;BME280;57976;48.174;16.370;2023-05-10T18:52:39;99070.17;;;18.13;48.19
70488;BME280;57976;48.174;16.370;2023-05-10T18:54:45;99075.80;;;18.10;48.13
70488;BME280;57976;48.174;16.370;2023-05-10T18:56:50;99076.03;;;18.07;48.19
70488;BME280;57976;48.174;16.370;2023-05-10T18:58:55;99081.74;;;18.06;48.29
70488;BME280;57976;48.174;16.370;2023-05-10T19:01:01;99082.68;;;18.03;48.43
70488;BME280;57976;48.174;16.370;2023-05-10T19:03:06;99084.27;;;18.02;48.47
70488;BME280;57976;48.174;16.370;2023-05-10T19:05:12;99086.36;;;17.98;48.59
70488;BME280;57976;48.174;16.370;2023-05-10T19:07:19;99087.15;;;17.97;48.62
70488;BME280;57976;48.174;16.370;2023-05-10T19:09:27;99088.04;;;17.99;48.72